Medburyville, Vermont
Current Conditions -  °F | °C
As of 4:54 AM on Thursday 23 Oct 2014 (Local Time) from KDDH Reporting Station
Light Rain Light Rain  
Wind Chill: 40°   Ceiling: 1300
Heat Index: 45°   Visibility: 8mi
Dew Point: 42°   Wind: 9mph
Humidity: 90%   Direction: 340°NNW
Pressure: 29.83"   Gusts: NA
Location:  42.883°N, 72.8981°W
Report Text: KDDH 230854Z AUTO 34008KT 8SM -RA BKN013 BKN026 OVC070 07/06 A2983 RMK AO2 SLP105 P0010 60045 T00720056 58015
Loading
Personal Weather Stations






























Interactive Weather Map
Tropical Storm Tracking
New forecast layout! Learn more

10-Day Weather Forecast

Advertisements
Track Severe Weather on mobile